Time,TemperatureF,DewpointF,PressureIn,WindDirection,WindDirectionDegrees,WindSpeedMPH,WindSpeedGustMPH,Humidity,HourlyPrecipIn,Conditions,Clouds,dailyrainin,SoftwareType,DateUTC
2013-04-04 00:00:00,39.4,37.3,30.17,NNE,23,3.0,5.0,92,0.10,,---,0.00,VWS V14.00,2013-04-04 05:00:00,
2013-04-04 00:05:00,39.4,37.3,30.18,NNE,23,3.0,4.0,92,0.08,,---,0.00,VWS V14.00,2013-04-04 05:05:00,
2013-04-04 00:10:00,39.5,37.4,30.18,NNE,23,2.0,3.0,92,0.05,,---,0.00,VWS V14.00,2013-04-04 05:10:00,
2013-04-04 00:15:00,39.5,37.4,30.18,NNE,23,2.0,3.0,92,0.04,,---,0.01,VWS V14.00,2013-04-04 05:15:00,
2013-04-04 00:20:00,39.5,37.4,30.18,NNE,23,2.0,3.0,92,0.04,,---,0.01,VWS V14.00,2013-04-04 05:20:00,
2013-04-04 00:25:00,39.5,37.4,30.17,NNE,23,3.0,3.0,92,0.05,,---,0.02,VWS V14.00,2013-04-04 05:25:00,
2013-04-04 00:30:00,39.6,37.5,30.17,NNE,23,3.0,4.0,92,0.10,,---,0.03,VWS V14.00,2013-04-04 05:30:00,
2013-04-04 00:35:00,39.6,37.5,30.17,NNE,23,3.0,7.0,92,0.13,,---,0.04,VWS V14.00,2013-04-04 05:35:00,
2013-04-04 00:40:00,39.6,37.5,30.17,NNE,23,4.0,6.0,92,0.19,,---,0.06,VWS V14.00,2013-04-04 05:40:00,
2013-04-04 00:45:00,39.6,37.5,30.17,NNE,23,3.0,4.0,92,0.20,,---,0.07,VWS V14.00,2013-04-04 05:45:00,
2013-04-04 00:50:00,39.6,37.5,30.17,NNE,23,4.0,6.0,92,0.13,,---,0.08,VWS V14.00,2013-04-04 05:50:00,
2013-04-04 00:55:00,39.6,37.5,30.18,NNE,23,3.0,5.0,92,0.17,,---,0.09,VWS V14.00,2013-04-04 05:55:00,
2013-04-04 01:00:00,39.6,37.5,30.18,NNE,23,3.0,3.0,92,0.09,,---,0.10,VWS V14.00,2013-04-04 06:00:00,
2013-04-04 01:05:00,39.7,37.6,30.18,NNE,23,4.0,4.0,92,0.12,,---,0.11,VWS V14.00,2013-04-04 06:05:00,
2013-04-04 01:10:00,39.7,37.8,30.18,NNE,23,2.0,4.0,93,0.10,,---,0.11,VWS V14.00,2013-04-04 06:10:00,
2013-04-04 01:15:00,39.6,37.5,30.19,NNE,23,1.0,3.0,92,0.05,,---,0.12,VWS V14.00,2013-04-04 06:15:00,
2013-04-04 01:20:00,39.6,37.5,30.19,NNE,23,2.0,3.0,92,0.05,,---,0.12,VWS V14.00,2013-04-04 06:20:00,
2013-04-04 01:25:00,39.7,37.6,30.19,NNE,23,1.0,4.0,92,0.05,,---,0.12,VWS V14.00,2013-04-04 06:25:00,
2013-04-04 01:30:00,39.6,37.5,30.19,NNE,23,1.0,2.0,92,0.04,,---,0.12,VWS V14.00,2013-04-04 06:30:00,
2013-04-04 01:35:00,39.6,37.8,30.19,NNE,23,0.0,2.0,93,0.00,,---,0.12,VWS V14.00,2013-04-04 06:35:00,
2013-04-04 01:40:00,39.6,37.8,30.19,NNE,23,0.0,0.0,93,0.00,,---,0.12,VWS V14.00,2013-04-04 06:40:00,
2013-04-04 01:45:00,39.6,37.8,30.19,NNE,23,0.0,0.0,93,0.00,,---,0.13,VWS V14.00,2013-04-04 06:45:00,
2013-04-04 01:50:00,39.6,37.8,30.19,NNE,23,2.0,3.0,93,0.00,,---,0.13,VWS V14.00,2013-04-04 06:50:00,
2013-04-04 01:55:00,39.6,37.8,30.19,NNE,23,2.0,3.0,93,0.00,,---,0.13,VWS V14.00,2013-04-04 06:55:00,
2013-04-04 02:00:00,39.6,37.8,30.19,NNE,23,0.0,2.0,93,0.00,,---,0.13,VWS V14.00,2013-04-04 07:00:00,
2013-04-04 02:05:00,39.6,37.8,30.19,NNE,23,0.0,2.0,93,0.00,,---,0.14,VWS V14.00,2013-04-04 07:05:00,
2013-04-04 02:10:00,39.6,37.8,30.19,NNE,22,6.0,6.0,93,0.00,,---,0.14,VWS V14.00,2013-04-04 07:10:00,
2013-04-04 02:15:00,39.6,37.8,30.19,NNE,22,5.0,6.0,93,0.00,,---,0.14,VWS V14.00,2013-04-04 07:15:00,
2013-04-04 02:20:00,39.5,37.7,30.19,NNE,15,3.0,5.0,93,0.04,,---,0.15,VWS V14.00,2013-04-04 07:20:00,
2013-04-04 02:25:00,39.5,37.7,30.19,NNE,15,2.0,5.0,93,0.04,,---,0.15,VWS V14.00,2013-04-04 07:25:00,
2013-04-04 02:30:00,39.4,37.5,30.19,NNE,12,4.0,5.0,93,0.04,,---,0.15,VWS V14.00,2013-04-04 07:30:00,
2013-04-04 02:35:00,39.4,37.5,30.19,North,360,7.0,10.0,93,0.04,,---,0.15,VWS V14.00,2013-04-04 07:35:00,
2013-04-04 02:40:00,39.3,37.5,30.19,North,360,4.0,6.0,93,0.00,,---,0.16,VWS V14.00,2013-04-04 07:40:00,
2013-04-04 02:45:00,39.3,37.5,30.18,North,355,5.0,11.0,93,0.00,,---,0.16,VWS V14.00,2013-04-04 07:45:00,
2013-04-04 02:50:00,39.3,37.5,30.18,North,355,2.0,5.0,93,0.00,,---,0.16,VWS V14.00,2013-04-04 07:50:00,
2013-04-04 02:55:00,39.2,37.3,30.18,North,355,6.0,10.0,93,0.00,,---,0.16,VWS V14.00,2013-04-04 07:55:00,
2013-04-04 03:00:00,39.1,37.2,30.18,North,350,5.0,9.0,93,0.00,,---,0.17,VWS V14.00,2013-04-04 08:00:00,
2013-04-04 03:05:00,39.0,37.2,30.18,North,350,9.0,10.0,93,0.00,,---,0.17,VWS V14.00,2013-04-04 08:05:00,
2013-04-04 03:10:00,38.9,37.0,30.18,NNW,348,3.0,9.0,93,0.00,,---,0.17,VWS V14.00,2013-04-04 08:10:00,
2013-04-04 03:15:00,38.9,37.0,30.18,NNW,347,6.0,7.0,93,0.00,,---,0.17,VWS V14.00,2013-04-04 08:15:00,
2013-04-04 03:20:00,38.8,37.0,30.18,NNW,338,9.0,13.0,93,0.00,,---,0.17,VWS V14.00,2013-04-04 08:20:00,
2013-04-04 03:25:00,38.7,36.8,30.17,NNW,334,10.0,10.0,93,0.00,,---,0.17,VWS V14.00,2013-04-04 08:25:00,
2013-04-04 03:30:00,38.6,36.8,30.18,NNW,333,6.0,10.0,93,0.00,,---,0.17,VWS V14.00,2013-04-04 08:30:00,
2013-04-04 03:35:00,38.6,36.8,30.17,NNW,333,5.0,10.0,93,0.00,,---,0.18,VWS V14.00,2013-04-04 08:35:00,
2013-04-04 03:40:00,38.6,36.8,30.17,NNW,333,6.0,9.0,93,0.00,,---,0.18,VWS V14.00,2013-04-04 08:40:00,
2013-04-04 03:45:00,38.5,36.7,30.17,NNW,335,2.0,6.0,93,0.00,,---,0.18,VWS V14.00,2013-04-04 08:45:00,
2013-04-04 03:50:00,38.5,36.7,30.17,NNW,335,7.0,9.0,93,0.00,,---,0.18,VWS V14.00,2013-04-04 08:50:00,
2013-04-04 03:55:00,38.5,36.7,30.17,NNW,335,6.0,9.0,93,0.00,,---,0.18,VWS V14.00,2013-04-04 08:55:00,
2013-04-04 04:00:00,38.5,36.7,30.17,NNW,335,6.0,7.0,93,0.00,,---,0.18,VWS V14.00,2013-04-04 09:00:00,
2013-04-04 04:05:00,38.4,36.6,30.17,NNW,335,4.0,7.0,93,0.00,,---,0.18,VWS V14.00,2013-04-04 09:05:00,
2013-04-04 04:10:00,38.4,36.6,30.17,NNW,335,3.0,9.0,93,0.00,,---,0.18,VWS V14.00,2013-04-04 09:10:00,
2013-04-04 04:15:00,38.4,36.6,30.17,NNW,336,9.0,11.0,93,0.00,,---,0.18,VWS V14.00,2013-04-04 09:15:00,
2013-04-04 04:20:00,38.3,36.5,30.17,NNW,336,5.0,7.0,93,0.00,,---,0.18,VWS V14.00,2013-04-04 09:20:00,
2013-04-04 04:25:00,38.3,36.5,30.17,NNW,338,4.0,7.0,93,0.00,,---,0.18,VWS V14.00,2013-04-04 09:25:00,
2013-04-04 04:30:00,38.2,36.4,30.17,NNW,340,9.0,10.0,93,0.00,,---,0.18,VWS V14.00,2013-04-04 09:30:00,
2013-04-04 04:35:00,38.2,36.4,30.17,NNW,341,5.0,11.0,93,0.00,,---,0.18,VWS V14.00,2013-04-04 09:35:00,
2013-04-04 04:40:00,38.1,36.3,30.17,NNW,341,9.0,10.0,93,0.00,,---,0.18,VWS V14.00,2013-04-04 09:40:00,
2013-04-04 04:45:00,38.1,36.3,30.17,NNW,340,5.0,10.0,93,0.00,,---,0.19,VWS V14.00,2013-04-04 09:45:00,
2013-04-04 04:50:00,38.1,36.3,30.17,NNW,340,5.0,6.0,93,0.00,,---,0.19,VWS V14.00,2013-04-04 09:50:00,
2013-04-04 04:55:00,38.0,36.2,30.17,NNW,340,6.0,7.0,93,0.00,,---,0.19,VWS V14.00,2013-04-04 09:55:00,
2013-04-04 05:00:00,38.1,36.3,30.17,NNW,340,2.0,6.0,93,0.00,,---,0.19,VWS V14.00,2013-04-04 10:00:00,
2013-04-04 05:05:00,38.0,36.2,30.17,NNW,340,4.0,6.0,93,0.00,,---,0.19,VWS V14.00,2013-04-04 10:05:00,
2013-04-04 05:10:00,38.0,36.2,30.17,NNW,340,4.0,9.0,93,0.00,,---,0.19,VWS V14.00,2013-04-04 10:10:00,
2013-04-04 05:15:00,38.0,36.2,30.17,NNW,340,3.0,5.0,93,0.00,,---,0.19,VWS V14.00,2013-04-04 10:15:00,
2013-04-04 05:20:00,37.9,36.1,30.16,NNW,340,2.0,5.0,93,0.00,,---,0.19,VWS V14.00,2013-04-04 10:20:00,
2013-04-04 05:25:00,37.9,36.1,30.16,NNW,340,2.0,7.0,93,0.00,,---,0.19,VWS V14.00,2013-04-04 10:25:00,
2013-04-04 05:30:00,37.9,36.1,30.16,NNW,341,4.0,5.0,93,0.00,,---,0.19,VWS V14.00,2013-04-04 10:30:00,
2013-04-04 05:35:00,37.9,36.1,30.16,NNW,341,2.0,6.0,93,0.00,,---,0.19,VWS V14.00,2013-04-04 10:35:00,
2013-04-04 05:40:00,37.9,36.1,30.16,NNW,341,6.0,7.0,93,0.00,,---,0.19,VWS V14.00,2013-04-04 10:40:00,
2013-04-04 05:45:00,37.9,36.1,30.16,NNW,341,2.0,6.0,93,0.00,,---,0.19,VWS V14.00,2013-04-04 10:45:00,
2013-04-04 05:50:00,37.9,36.1,30.16,NNW,341,3.0,6.0,93,0.00,,---,0.19,VWS V14.00,2013-04-04 10:50:00,
2013-04-04 05:55:00,37.9,36.1,30.16,NNW,341,4.0,5.0,93,0.00,,---,0.19,VWS V14.00,2013-04-04 10:55:00,
2013-04-04 06:00:00,37.9,36.1,30.16,NNW,341,1.0,3.0,93,0.00,,---,0.19,VWS V14.00,2013-04-04 11:00:00,
2013-04-04 06:05:00,37.9,36.1,30.16,NNW,341,3.0,4.0,93,0.00,,---,0.19,VWS V14.00,2013-04-04 11:05:00,
2013-04-04 06:10:00,37.9,36.1,30.16,NNW,341,4.0,6.0,93,0.00,,---,0.19,VWS V14.00,2013-04-04 11:10:00,
2013-04-04 06:15:00,37.9,36.1,30.16,NNW,341,3.0,5.0,93,0.00,,---,0.19,VWS V14.00,2013-04-04 11:15:00,
2013-04-04 06:20:00,38.0,36.2,30.16,NNW,341,3.0,4.0,93,0.00,,---,0.19,VWS V14.00,2013-04-04 11:20:00,
2013-04-04 06:25:00,38.0,36.2,30.16,NNW,341,5.0,6.0,93,0.00,,---,0.20,VWS V14.00,2013-04-04 11:25:00,
2013-04-04 06:30:00,38.0,36.2,30.16,NNW,341,5.0,6.0,93,0.00,,---,0.20,VWS V14.00,2013-04-04 11:30:00,
2013-04-04 06:35:00,38.0,36.2,30.16,NNW,341,3.0,4.0,93,0.00,,---,0.20,VWS V14.00,2013-04-04 11:35:00,
2013-04-04 06:40:00,38.0,36.2,30.16,NNW,341,4.0,4.0,93,0.00,,---,0.20,VWS V14.00,2013-04-04 11:40:00,
2013-04-04 06:45:00,38.0,36.2,30.16,NNW,341,2.0,5.0,93,0.00,,---,0.20,VWS V14.00,2013-04-04 11:45:00,
2013-04-04 06:50:00,38.0,36.2,30.16,NNW,341,0.0,0.0,93,0.00,,---,0.20,VWS V14.00,2013-04-04 11:50:00,
2013-04-04 06:55:00,38.1,36.3,30.16,NNW,341,0.0,0.0,93,0.00,,---,0.20,VWS V14.00,2013-04-04 11:55:00,
2013-04-04 07:00:00,38.0,36.2,30.16,NNW,341,0.0,0.0,93,0.00,,---,0.20,VWS V14.00,2013-04-04 12:00:00,
2013-04-04 07:05:00,38.1,36.3,30.16,NNW,341,0.0,0.0,93,0.00,,---,0.20,VWS V14.00,2013-04-04 12:05:00,
2013-04-04 07:10:00,38.1,36.3,30.16,NNW,341,0.0,0.0,93,0.00,,---,0.20,VWS V14.00,2013-04-04 12:10:00,
2013-04-04 07:15:00,38.1,36.3,30.16,NNW,341,0.0,0.0,93,0.00,,---,0.20,VWS V14.00,2013-04-04 12:15:00,
2013-04-04 07:20:00,38.1,36.3,30.17,NNW,341,0.0,0.0,93,0.00,,---,0.20,VWS V14.00,2013-04-04 12:20:00,
2013-04-04 07:25:00,38.2,36.4,30.16,NNW,341,0.0,0.0,93,0.00,,---,0.20,VWS V14.00,2013-04-04 12:25:00,
2013-04-04 07:30:00,38.2,36.4,30.16,NNW,341,0.0,0.0,93,0.00,,---,0.21,VWS V14.00,2013-04-04 12:30:00,
2013-04-04 07:35:00,38.2,36.4,30.16,NNW,341,0.0,0.0,93,0.00,,---,0.21,VWS V14.00,2013-04-04 12:35:00,
2013-04-04 07:40:00,38.2,36.4,30.16,NNW,341,0.0,0.0,93,0.00,,---,0.21,VWS V14.00,2013-04-04 12:40:00,
2013-04-04 07:45:00,38.3,36.5,30.16,NNW,341,0.0,0.0,93,0.00,,---,0.21,VWS V14.00,2013-04-04 12:45:00,
2013-04-04 07:50:00,38.3,36.5,30.16,NNW,341,0.0,0.0,93,0.00,,---,0.21,VWS V14.00,2013-04-04 12:50:00,
2013-04-04 07:55:00,38.4,36.6,30.16,NNW,342,1.0,4.0,93,0.00,,---,0.21,VWS V14.00,2013-04-04 12:55:00,
2013-04-04 08:00:00,38.5,36.7,30.16,NNW,342,2.0,4.0,93,0.00,,---,0.21,VWS V14.00,2013-04-04 13:00:00,
2013-04-04 08:05:00,38.6,36.8,30.16,NNW,342,2.0,3.0,93,0.00,,---,0.21,VWS V14.00,2013-04-04 13:05:00,
2013-04-04 08:10:00,38.7,36.8,30.16,NNW,342,3.0,6.0,93,0.00,,---,0.21,VWS V14.00,2013-04-04 13:10:00,
2013-04-04 08:15:00,38.8,37.0,30.16,NNW,342,3.0,5.0,93,0.00,,---,0.21,VWS V14.00,2013-04-04 13:15:00,
2013-04-04 08:20:00,38.9,37.0,30.16,NNW,341,1.0,2.0,93,0.00,,---,0.21,VWS V14.00,2013-04-04 13:20:00,
2013-04-04 08:25:00,39.0,37.4,30.16,NNW,341,0.0,3.0,94,0.00,,---,0.21,VWS V14.00,2013-04-04 13:25:00,
2013-04-04 08:30:00,39.1,37.5,30.16,NNW,341,3.0,5.0,94,0.00,,---,0.21,VWS V14.00,2013-04-04 13:30:00,
2013-04-04 08:35:00,39.2,37.6,30.16,NNW,341,5.0,6.0,94,0.00,,---,0.21,VWS V14.00,2013-04-04 13:35:00,
2013-04-04 08:40:00,39.2,37.6,30.16,NNW,341,4.0,4.0,94,0.00,,---,0.21,VWS V14.00,2013-04-04 13:40:00,
2013-04-04 08:45:00,39.3,37.5,30.16,NNW,341,1.0,2.0,93,0.00,,---,0.21,VWS V14.00,2013-04-04 13:45:00,
2013-04-04 08:50:00,39.5,37.7,30.16,NNW,341,1.0,4.0,93,0.00,,---,0.21,VWS V14.00,2013-04-04 13:50:00,
2013-04-04 08:55:00,39.6,38.0,30.16,NNW,341,2.0,4.0,94,0.00,,---,0.21,VWS V14.00,2013-04-04 13:55:00,
2013-04-04 09:00:00,39.8,38.2,30.16,NNW,341,3.0,6.0,94,0.00,,---,0.21,VWS V14.00,2013-04-04 14:00:00,
2013-04-04 09:05:00,40.0,38.4,30.16,NNW,341,3.0,5.0,94,0.00,,---,0.21,VWS V14.00,2013-04-04 14:05:00,
2013-04-04 09:10:00,40.4,38.8,30.16,NNW,331,7.0,9.0,94,0.00,,---,0.21,VWS V14.00,2013-04-04 14:10:00,
2013-04-04 09:15:00,40.9,39.3,30.16,NNW,329,6.0,10.0,94,0.00,,---,0.21,VWS V14.00,2013-04-04 14:15:00,
2013-04-04 09:20:00,41.0,39.4,30.16,NNW,329,5.0,9.0,94,0.00,,---,0.21,VWS V14.00,2013-04-04 14:20:00,
2013-04-04 09:25:00,41.1,39.2,30.16,NNW,329,4.0,6.0,93,0.00,,---,0.21,VWS V14.00,2013-04-04 14:25:00,
2013-04-04 09:30:00,41.1,39.2,30.16,NNW,329,4.0,7.0,93,0.00,,---,0.21,VWS V14.00,2013-04-04 14:30:00,
2013-04-04 09:35:00,41.3,39.4,30.16,NNW,329,6.0,7.0,93,0.00,,---,0.21,VWS V14.00,2013-04-04 14:35:00,
2013-04-04 09:40:00,41.5,39.6,30.16,NNW,329,4.0,4.0,93,0.00,,---,0.21,VWS V14.00,2013-04-04 14:40:00,
2013-04-04 09:45:00,41.8,39.9,30.15,NNW,336,4.0,6.0,93,0.00,,---,0.21,VWS V14.00,2013-04-04 14:45:00,
2013-04-04 09:50:00,42.1,40.2,30.16,NNW,336,5.0,7.0,93,0.00,,---,0.21,VWS V14.00,2013-04-04 14:50:00,
2013-04-04 09:55:00,42.4,40.5,30.16,NNW,336,0.0,5.0,93,0.00,,---,0.21,VWS V14.00,2013-04-04 14:55:00,
2013-04-04 10:00:00,42.7,40.8,30.16,NNW,336,3.0,6.0,93,0.00,,---,0.21,VWS V14.00,2013-04-04 15:00:00,
2013-04-04 10:05:00,42.9,41.0,30.16,NNW,336,2.0,7.0,93,0.00,,---,0.21,VWS V14.00,2013-04-04 15:05:00,
2013-04-04 10:10:00,43.1,40.9,30.16,NNW,334,5.0,7.0,92,0.00,,---,0.21,VWS V14.00,2013-04-04 15:10:00,
2013-04-04 10:15:00,43.2,41.0,30.16,NNW,335,3.0,6.0,92,0.00,,---,0.21,VWS V14.00,2013-04-04 15:15:00,
2013-04-04 10:20:00,43.3,40.8,30.16,NNE,15,4.0,4.0,91,0.00,,---,0.21,VWS V14.00,2013-04-04 15:20:00,
2013-04-04 10:25:00,43.7,41.2,30.16,NNW,343,4.0,9.0,91,0.00,,---,0.21,VWS V14.00,2013-04-04 15:25:00,
2013-04-04 10:30:00,43.8,41.1,30.16,NNW,338,5.0,7.0,90,0.00,,---,0.21,VWS V14.00,2013-04-04 15:30:00,
2013-04-04 10:35:00,44.0,41.3,30.16,NNW,338,2.0,6.0,90,0.00,,---,0.21,VWS V14.00,2013-04-04 15:35:00,
2013-04-04 10:40:00,44.2,41.2,30.16,NNW,338,5.0,6.0,89,0.00,,---,0.21,VWS V14.00,2013-04-04 15:40:00,
2013-04-04 10:46:00,44.4,40.8,30.16,NNW,340,6.0,9.0,87,0.00,,---,0.21,VWS V14.00,2013-04-04 15:46:00,
2013-04-04 10:50:00,44.6,40.4,30.17,NNW,340,2.0,7.0,85,0.00,,---,0.21,VWS V14.00,2013-04-04 15:50:00,
2013-04-04 10:56:00,45.0,40.5,30.16,NNW,344,4.0,5.0,84,0.00,,---,0.21,VWS V14.00,2013-04-04 15:56:00,
2013-04-04 11:01:00,45.2,40.0,30.17,NNW,344,3.0,6.0,82,0.00,,---,0.21,VWS V14.00,2013-04-04 16:01:00,
2013-04-04 11:06:00,45.6,40.1,30.17,NNW,344,4.0,6.0,81,0.00,,---,0.21,VWS V14.00,2013-04-04 16:06:00,
2013-04-04 11:11:00,46.2,40.4,30.17,NNW,345,7.0,7.0,80,0.00,,---,0.21,VWS V14.00,2013-04-04 16:11:00,
2013-04-04 11:16:00,46.7,40.5,30.17,NNW,340,0.0,8.0,79,0.00,,---,0.21,VWS V14.00,2013-04-04 16:16:00,
2013-04-04 11:21:00,47.1,40.6,30.17,NNW,337,4.0,6.0,78,0.00,,---,0.21,VWS V14.00,2013-04-04 16:21:00,
2013-04-04 11:26:00,47.3,40.1,30.16,NNW,337,1.0,9.0,76,0.00,,---,0.21,VWS V14.00,2013-04-04 16:26:00,
2013-04-04 11:31:00,47.5,40.3,30.17,NNW,337,6.0,9.0,76,0.00,,---,0.21,VWS V14.00,2013-04-04 16:31:00,
2013-04-04 11:36:00,47.8,39.9,30.17,NNW,337,4.0,6.0,74,0.00,,---,0.21,VWS V14.00,2013-04-04 16:36:00,
2013-04-04 11:41:00,48.0,40.1,30.17,NNW,337,5.0,6.0,74,0.00,,---,0.21,VWS V14.00,2013-04-04 16:41:00,
2013-04-04 11:46:00,48.2,40.7,30.17,NNW,337,3.0,7.0,75,0.00,,---,0.21,VWS V14.00,2013-04-04 16:46:00,
2013-04-04 11:51:00,48.5,40.6,30.17,NNW,337,2.0,4.0,74,0.00,,---,0.21,VWS V14.00,2013-04-04 16:51:00,
2013-04-04 11:56:00,48.9,40.6,30.17,NNW,337,6.0,9.0,73,0.00,,---,0.21,VWS V14.00,2013-04-04 16:56:00,
2013-04-04 12:01:00,49.0,39.7,30.17,NNW,337,4.0,5.0,70,0.00,,---,0.21,VWS V14.00,2013-04-04 17:01:00,
2013-04-04 12:06:00,49.2,39.1,30.16,NNW,336,3.0,9.0,68,0.00,,---,0.21,VWS V14.00,2013-04-04 17:06:00,
2013-04-04 12:11:00,49.4,39.3,30.16,NNW,336,5.0,7.0,68,0.00,,---,0.21,VWS V14.00,2013-04-04 17:11:00,
2013-04-04 12:16:00,49.6,39.1,30.16,NNW,336,2.0,7.0,67,0.00,,---,0.21,VWS V14.00,2013-04-04 17:16:00,
2013-04-04 12:21:00,49.7,38.8,30.16,NNW,333,2.0,6.0,66,0.00,,---,0.21,VWS V14.00,2013-04-04 17:21:00,
2013-04-04 12:26:00,50.1,40.0,30.16,NW,321,5.0,9.0,68,0.00,,---,0.21,VWS V14.00,2013-04-04 17:26:00,
2013-04-04 12:31:00,50.5,40.3,30.16,NW,321,6.0,7.0,68,0.00,,---,0.21,VWS V14.00,2013-04-04 17:31:00,
2013-04-04 12:36:00,50.9,39.6,30.16,NW,320,0.0,1.0,65,0.00,,---,0.21,VWS V14.00,2013-04-04 17:36:00,
2013-04-04 12:41:00,51.3,38.7,30.16,NW,322,1.0,10.0,62,0.00,,---,0.21,VWS V14.00,2013-04-04 17:41:00,
2013-04-04 12:46:00,51.6,38.6,30.16,NW,317,4.0,13.0,61,0.00,,---,0.21,VWS V14.00,2013-04-04 17:46:00,
2013-04-04 12:51:00,51.7,38.3,30.15,NNW,342,6.0,10.0,60,0.00,,---,0.21,VWS V14.00,2013-04-04 17:51:00,
2013-04-04 12:56:00,51.9,38.5,30.15,NW,304,11.0,12.0,60,0.00,,---,0.21,VWS V14.00,2013-04-04 17:56:00,
2013-04-04 13:01:00,52.1,39.1,30.15,NW,321,11.0,11.0,61,0.00,,---,0.21,VWS V14.00,2013-04-04 18:01:00,
2013-04-04 13:06:00,52.4,39.8,30.15,NW,318,5.0,11.0,62,0.00,,---,0.21,VWS V14.00,2013-04-04 18:06:00,
2013-04-04 13:12:00,52.6,36.5,30.15,WNW,301,6.0,13.0,54,0.00,,---,0.21,VWS V14.00,2013-04-04 18:12:00,
2013-04-04 13:17:00,52.6,36.9,30.15,NNW,339,6.0,12.0,55,0.00,,---,0.21,VWS V14.00,2013-04-04 18:17:00,
2013-04-04 13:22:00,52.8,38.5,30.15,NW,319,9.0,9.0,58,0.00,,---,0.21,VWS V14.00,2013-04-04 18:22:00,
2013-04-04 13:27:00,53.0,38.2,30.14,NNW,340,6.0,10.0,57,0.00,,---,0.21,VWS V14.00,2013-04-04 18:27:00,
2013-04-04 13:32:00,53.2,37.0,30.14,NNW,332,7.0,13.0,54,0.00,,---,0.21,VWS V14.00,2013-04-04 18:32:00,
2013-04-04 13:37:00,53.5,37.8,30.14,NW,319,6.0,10.0,55,0.00,,---,0.21,VWS V14.00,2013-04-04 18:37:00,
2013-04-04 13:42:00,53.7,36.0,30.14,NNW,338,5.0,12.0,51,0.00,,---,0.21,VWS V14.00,2013-04-04 18:42:00,
2013-04-04 13:47:00,53.9,36.2,30.14,North,9,5.0,10.0,51,0.00,,---,0.21,VWS V14.00,2013-04-04 18:47:00,
2013-04-04 13:52:00,54.0,36.3,30.13,NW,323,5.0,12.0,51,0.00,,---,0.21,VWS V14.00,2013-04-04 18:52:00,
2013-04-04 13:57:00,54.1,36.4,30.13,NW,322,4.0,13.0,51,0.00,,---,0.21,VWS V14.00,2013-04-04 18:57:00,
2013-04-04 14:02:00,54.2,37.5,30.13,North,351,10.0,10.0,53,0.00,,---,0.21,VWS V14.00,2013-04-04 19:02:00,
2013-04-04 14:07:00,54.3,37.5,30.13,NNW,329,12.0,14.0,53,0.00,,---,0.21,VWS V14.00,2013-04-04 19:07:00,
2013-04-04 14:12:00,54.2,37.0,30.13,NNW,327,10.0,13.0,52,0.00,,---,0.21,VWS V14.00,2013-04-04 19:12:00,
2013-04-04 14:17:00,54.3,36.1,30.13,NNW,344,4.0,13.0,50,0.00,,---,0.21,VWS V14.00,2013-04-04 19:17:00,
2013-04-04 14:22:00,54.4,38.6,30.12,NW,313,9.0,11.0,55,0.00,,---,0.21,VWS V14.00,2013-04-04 19:22:00,
2013-04-04 14:27:00,54.4,37.6,30.12,NNW,333,10.0,13.0,53,0.00,,---,0.21,VWS V14.00,2013-04-04 19:27:00,
2013-04-04 14:32:00,54.5,35.8,30.12,NNW,334,7.0,11.0,49,0.00,,---,0.21,VWS V14.00,2013-04-04 19:32:00,
2013-04-04 14:37:00,54.6,36.8,30.12,NNW,331,10.0,11.0,51,0.00,,---,0.21,VWS V14.00,2013-04-04 19:37:00,
2013-04-04 14:42:00,54.6,37.8,30.12,NW,324,12.0,13.0,53,0.00,,---,0.21,VWS V14.00,2013-04-04 19:42:00,
2013-04-04 14:47:00,54.5,36.8,30.12,NNW,332,8.0,14.0,51,0.00,,---,0.21,VWS V14.00,2013-04-04 19:47:00,
2013-04-04 14:52:00,54.4,37.6,30.12,North,350,5.0,10.0,53,0.00,,---,0.21,VWS V14.00,2013-04-04 19:52:00,
2013-04-04 14:57:00,54.7,37.9,30.11,NW,325,6.0,15.0,53,0.00,,---,0.21,VWS V14.00,2013-04-04 19:57:00,
2013-04-04 15:02:00,55.1,36.8,30.11,NNW,332,9.0,11.0,50,0.00,,---,0.21,VWS V14.00,2013-04-04 20:02:00,
2013-04-04 15:07:00,55.4,39.0,30.11,North,355,6.0,15.0,54,0.00,,---,0.21,VWS V14.00,2013-04-04 20:07:00,
2013-04-04 15:12:00,55.5,39.1,30.11,North,350,6.0,10.0,54,0.00,,---,0.21,VWS V14.00,2013-04-04 20:12:00,
2013-04-04 15:17:00,55.7,38.8,30.11,NW,326,7.0,14.0,53,0.00,,---,0.21,VWS V14.00,2013-04-04 20:17:00,
2013-04-04 15:22:00,55.9,40.9,30.11,NNW,342,5.0,14.0,57,0.00,,---,0.21,VWS V14.00,2013-04-04 20:22:00,
2013-04-04 15:27:00,56.0,39.6,30.10,North,355,6.0,12.0,54,0.00,,---,0.21,VWS V14.00,2013-04-04 20:27:00,
2013-04-04 15:32:00,56.1,39.2,30.10,North,351,13.0,13.0,53,0.00,,---,0.21,VWS V14.00,2013-04-04 20:32:00,
2013-04-04 15:37:00,56.1,37.7,30.10,NNW,329,11.0,15.0,50,0.00,,---,0.21,VWS V14.00,2013-04-04 20:37:00,
2013-04-04 15:42:00,56.2,38.8,30.10,North,350,8.0,14.0,52,0.00,,---,0.21,VWS V14.00,2013-04-04 20:42:00,
2013-04-04 15:47:00,56.3,37.4,30.10,NNW,338,12.0,13.0,49,0.00,,---,0.21,VWS V14.00,2013-04-04 20:47:00,
2013-04-04 15:52:00,56.5,36.5,30.09,NNW,340,5.0,8.0,47,0.00,,---,0.21,VWS V14.00,2013-04-04 20:52:00,
2013-04-04 15:57:00,56.8,36.3,30.09,NNW,342,6.0,9.0,46,0.00,,---,0.21,VWS V14.00,2013-04-04 20:57:00,
2013-04-04 16:02:00,56.9,35.8,30.09,North,5,11.0,16.0,45,0.00,,---,0.21,VWS V14.00,2013-04-04 21:02:00,
2013-04-04 16:07:00,57.0,37.0,30.09,NNE,24,9.0,12.0,47,0.00,,---,0.21,VWS V14.00,2013-04-04 21:07:00,
2013-04-04 16:12:00,57.0,36.4,30.08,NNE,25,9.0,11.0,46,0.00,,---,0.21,VWS V14.00,2013-04-04 21:12:00,
2013-04-04 16:17:00,56.9,35.8,30.09,North,355,10.0,10.0,45,0.00,,---,0.21,VWS V14.00,2013-04-04 21:17:00,
2013-04-04 16:22:00,56.9,36.3,30.08,NNE,19,13.0,15.0,46,0.00,,---,0.21,VWS V14.00,2013-04-04 21:22:00,
2013-04-04 16:27:00,57.2,36.1,30.08,NNE,28,12.0,15.0,45,0.00,,---,0.21,VWS V14.00,2013-04-04 21:27:00,
2013-04-04 16:32:00,56.9,34.7,30.08,NNE,17,1.0,11.0,43,0.00,,---,0.21,VWS V14.00,2013-04-04 21:32:00,
2013-04-04 16:37:00,56.8,34.6,30.08,NNE,17,2.0,2.0,43,0.00,,---,0.21,VWS V14.00,2013-04-04 21:37:00,
2013-04-04 16:42:00,57.1,36.5,30.08,NNE,19,4.0,11.0,46,0.00,,---,0.21,VWS V14.00,2013-04-04 21:42:00,
2013-04-04 16:47:00,57.4,35.7,30.08,NNE,24,11.0,12.0,44,0.00,,---,0.21,VWS V14.00,2013-04-04 21:47:00,
2013-04-04 16:52:00,57.5,35.2,30.08,NW,326,5.0,10.0,43,0.00,,---,0.21,VWS V14.00,2013-04-04 21:52:00,
2013-04-04 16:57:00,57.8,34.9,30.08,NNE,17,4.0,10.0,42,0.00,,---,0.21,VWS V14.00,2013-04-04 21:57:00,
2013-04-04 17:02:00,58.0,35.7,30.08,North,355,8.0,11.0,43,0.00,,---,0.21,VWS V14.00,2013-04-04 22:02:00,
2013-04-04 17:07:00,58.1,35.7,30.08,North,351,9.0,12.0,43,0.00,,---,0.21,VWS V14.00,2013-04-04 22:07:00,
2013-04-04 17:12:00,58.0,35.7,30.08,North,360,10.0,11.0,43,0.00,,---,0.21,VWS V14.00,2013-04-04 22:12:00,
2013-04-04 17:17:00,58.0,36.2,30.08,NNE,30,3.0,10.0,44,0.00,,---,0.21,VWS V14.00,2013-04-04 22:17:00,
2013-04-04 17:22:00,57.8,36.6,30.08,NNE,27,5.0,7.0,45,0.00,,---,0.21,VWS V14.00,2013-04-04 22:22:00,
2013-04-04 17:27:00,58.1,36.3,30.08,NNW,344,9.0,12.0,44,0.00,,---,0.21,VWS V14.00,2013-04-04 22:27:00,
2013-04-04 17:32:00,58.1,36.3,30.08,NNE,15,2.0,12.0,44,0.00,,---,0.21,VWS V14.00,2013-04-04 22:32:00,
2013-04-04 17:37:00,58.1,37.5,30.08,NNE,23,5.0,10.0,46,0.00,,---,0.21,VWS V14.00,2013-04-04 22:37:00,
2013-04-04 17:42:00,58.1,36.3,30.08,NNE,26,7.0,11.0,44,0.00,,---,0.21,VWS V14.00,2013-04-04 22:42:00,
2013-04-04 17:47:00,58.0,36.2,30.08,NNE,25,3.0,6.0,44,0.00,,---,0.21,VWS V14.00,2013-04-04 22:47:00,
2013-04-04 17:52:00,58.0,37.4,30.08,NNE,19,8.0,8.0,46,0.00,,---,0.21,VWS V14.00,2013-04-04 22:52:00,
2013-04-04 17:57:00,58.2,36.4,30.08,North,355,5.0,10.0,44,0.00,,---,0.21,VWS V14.00,2013-04-04 22:57:00,
2013-04-04 18:02:00,58.2,35.8,30.08,NNE,12,5.0,10.0,43,0.00,,---,0.21,VWS V14.00,2013-04-04 23:02:00,
2013-04-04 18:07:00,58.1,36.3,30.08,NNE,16,9.0,11.0,44,0.00,,---,0.21,VWS V14.00,2013-04-04 23:07:00,
2013-04-04 18:13:00,58.2,35.8,30.08,NNW,348,6.0,11.0,43,0.00,,---,0.21,VWS V14.00,2013-04-04 23:13:00,
2013-04-04 18:18:00,58.1,35.7,30.08,North,360,5.0,7.0,43,0.00,,---,0.21,VWS V14.00,2013-04-04 23:18:00,
2013-04-04 18:23:00,58.2,35.8,30.08,North,360,1.0,6.0,43,0.00,,---,0.21,VWS V14.00,2013-04-04 23:23:00,
2013-04-04 18:28:00,58.3,35.9,30.08,North,355,7.0,7.0,43,0.00,,---,0.21,VWS V14.00,2013-04-04 23:28:00,
2013-04-04 18:33:00,58.4,35.4,30.08,North,355,4.0,6.0,42,0.00,,---,0.21,VWS V14.00,2013-04-04 23:33:00,
2013-04-04 18:38:00,58.4,36.6,30.08,North,355,0.0,5.0,44,0.00,,---,0.21,VWS V14.00,2013-04-04 23:38:00,
2013-04-04 18:43:00,58.5,36.1,30.08,North,355,4.0,10.0,43,0.00,,---,0.21,VWS V14.00,2013-04-04 23:43:00,
2013-04-04 18:48:00,58.4,36.0,30.08,North,355,5.0,11.0,43,0.00,,---,0.21,VWS V14.00,2013-04-04 23:48:00,
2013-04-04 18:53:00,58.2,37.0,30.08,North,355,2.0,7.0,45,0.00,,---,0.21,VWS V14.00,2013-04-04 23:53:00,
2013-04-04 18:58:00,58.1,38.5,30.08,North,355,3.0,6.0,48,0.00,,---,0.21,VWS V14.00,2013-04-04 23:58:00,
2013-04-04 19:02:00,58.0,37.4,30.08,North,355,0.0,6.0,46,0.00,,---,0.21,VWS V14.00,2013-04-05 00:02:00,
2013-04-04 19:07:00,57.9,38.3,30.08,North,355,0.0,4.0,48,0.00,,---,0.21,VWS V14.00,2013-04-05 00:07:00,
2013-04-04 19:12:00,57.8,37.2,30.08,North,355,0.0,1.0,46,0.00,,---,0.21,VWS V14.00,2013-04-05 00:12:00,
2013-04-04 19:17:00,57.7,37.6,30.08,North,355,0.0,0.0,47,0.00,,---,0.21,VWS V14.00,2013-04-05 00:17:00,
2013-04-04 19:22:00,57.6,36.4,30.08,North,355,0.0,1.0,45,0.00,,---,0.21,VWS V14.00,2013-04-05 00:22:00,
2013-04-04 19:27:00,57.3,36.7,30.08,North,355,1.0,1.0,46,0.00,,---,0.21,VWS V14.00,2013-04-05 00:27:00,
2013-04-04 19:32:00,57.1,36.0,30.08,North,355,0.0,0.0,45,0.00,,---,0.21,VWS V14.00,2013-04-05 00:32:00,
2013-04-04 19:37:00,56.7,35.6,30.09,North,355,0.0,0.0,45,0.00,,---,0.21,VWS V14.00,2013-04-05 00:37:00,
2013-04-04 19:42:00,56.3,35.2,30.09,North,355,0.0,0.0,45,0.00,,---,0.21,VWS V14.00,2013-04-05 00:42:00,
2013-04-04 19:47:00,56.1,35.1,30.09,North,355,0.0,0.0,45,0.00,,---,0.21,VWS V14.00,2013-04-05 00:47:00,
2013-04-04 19:52:00,55.8,34.8,30.09,North,355,0.0,0.0,45,0.00,,---,0.21,VWS V14.00,2013-04-05 00:52:00,
2013-04-04 19:57:00,55.6,35.2,30.09,North,355,0.0,0.0,46,0.00,,---,0.21,VWS V14.00,2013-04-05 00:57:00,
2013-04-04 20:02:00,55.4,35.0,30.09,North,355,0.0,0.0,46,0.00,,---,0.21,VWS V14.00,2013-04-05 01:02:00,
2013-04-04 20:07:00,55.1,34.7,30.09,North,355,0.0,0.0,46,0.00,,---,0.21,VWS V14.00,2013-04-05 01:07:00,
2013-04-04 20:12:00,54.7,37.4,30.08,North,355,0.0,0.0,52,0.00,,---,0.21,VWS V14.00,2013-04-05 01:12:00,
2013-04-04 20:17:00,54.2,37.5,30.09,North,355,0.0,0.0,53,0.00,,---,0.21,VWS V14.00,2013-04-05 01:17:00,
2013-04-04 20:22:00,53.8,36.6,30.09,North,355,0.0,0.0,52,0.00,,---,0.21,VWS V14.00,2013-04-05 01:22:00,
2013-04-04 20:27:00,53.3,36.1,30.09,North,355,0.0,0.0,52,0.00,,---,0.21,VWS V14.00,2013-04-05 01:27:00,
2013-04-04 20:32:00,52.9,35.3,30.09,North,355,0.0,0.0,51,0.00,,---,0.21,VWS V14.00,2013-04-05 01:32:00,
2013-04-04 20:37:00,52.7,34.6,30.09,North,355,0.0,0.0,50,0.00,,---,0.21,VWS V14.00,2013-04-05 01:37:00,
2013-04-04 20:42:00,52.5,34.4,30.10,North,355,0.0,0.0,50,0.00,,---,0.21,VWS V14.00,2013-04-05 01:42:00,
2013-04-04 20:47:00,52.3,34.7,30.10,North,355,0.0,0.0,51,0.00,,---,0.21,VWS V14.00,2013-04-05 01:47:00,
2013-04-04 20:53:00,52.1,35.0,30.10,North,355,0.0,0.0,52,0.00,,---,0.21,VWS V14.00,2013-04-05 01:53:00,
2013-04-04 20:58:00,51.9,35.8,30.10,North,355,0.0,0.0,54,0.00,,---,0.21,VWS V14.00,2013-04-05 01:58:00,
2013-04-04 21:03:00,51.5,36.3,30.11,North,355,0.0,0.0,56,0.00,,---,0.21,VWS V14.00,2013-04-05 02:03:00,
2013-04-04 21:08:00,51.2,37.8,30.11,North,355,0.0,0.0,60,0.00,,---,0.21,VWS V14.00,2013-04-05 02:08:00,
2013-04-04 21:13:00,50.6,39.3,30.11,North,355,0.0,0.0,65,0.00,,---,0.21,VWS V14.00,2013-04-05 02:13:00,
2013-04-04 21:18:00,50.1,38.4,30.11,North,355,0.0,0.0,64,0.00,,---,0.21,VWS V14.00,2013-04-05 02:18:00,
2013-04-04 21:23:00,49.6,37.9,30.11,North,355,0.0,0.0,64,0.00,,---,0.21,VWS V14.00,2013-04-05 02:23:00,
2013-04-04 21:28:00,49.4,37.3,30.12,North,355,0.0,0.0,63,0.00,,---,0.21,VWS V14.00,2013-04-05 02:28:00,
2013-04-04 21:33:00,49.2,37.2,30.12,North,355,0.0,0.0,63,0.00,,---,0.21,VWS V14.00,2013-04-05 02:33:00,
2013-04-04 21:38:00,49.0,37.0,30.12,North,355,0.0,0.0,63,0.00,,---,0.21,VWS V14.00,2013-04-05 02:38:00,
2013-04-04 21:43:00,48.8,36.8,30.12,North,355,0.0,0.0,63,0.00,,---,0.21,VWS V14.00,2013-04-05 02:43:00,
2013-04-04 21:48:00,48.5,37.7,30.13,North,355,4.0,6.0,66,0.00,,---,0.21,VWS V14.00,2013-04-05 02:48:00,
2013-04-04 21:53:00,47.7,37.7,30.13,North,355,1.0,3.0,68,0.00,,---,0.21,VWS V14.00,2013-04-05 02:53:00,
2013-04-04 21:58:00,47.0,37.4,30.13,North,355,0.0,0.0,69,0.00,,---,0.21,VWS V14.00,2013-04-05 02:58:00,
2013-04-04 22:03:00,46.7,37.5,30.13,North,355,0.0,0.0,70,0.00,,---,0.21,VWS V14.00,2013-04-05 03:03:00,
2013-04-04 22:08:00,46.3,37.1,30.13,North,355,0.0,0.0,70,0.00,,---,0.21,VWS V14.00,2013-04-05 03:08:00,
2013-04-04 22:13:00,46.0,36.8,30.13,North,355,0.0,0.0,70,0.00,,---,0.21,VWS V14.00,2013-04-05 03:13:00,
2013-04-04 22:18:00,45.8,37.0,30.13,North,355,0.0,1.0,71,0.00,,---,0.21,VWS V14.00,2013-04-05 03:18:00,
2013-04-04 22:23:00,45.8,37.7,30.13,North,355,1.0,1.0,73,0.00,,---,0.21,VWS V14.00,2013-04-05 03:23:00,
2013-04-04 22:28:00,46.0,38.2,30.14,North,355,0.0,3.0,74,0.00,,---,0.21,VWS V14.00,2013-04-05 03:28:00,
2013-04-04 22:33:00,46.1,39.0,30.14,North,355,2.0,3.0,76,0.00,,---,0.21,VWS V14.00,2013-04-05 03:33:00,
2013-04-04 22:38:00,46.4,39.3,30.14,North,355,0.0,3.0,76,0.00,,---,0.21,VWS V14.00,2013-04-05 03:38:00,
2013-04-04 22:43:00,46.6,39.8,30.14,North,355,0.0,2.0,77,0.00,,---,0.21,VWS V14.00,2013-04-05 03:43:00,
2013-04-04 22:48:00,46.7,39.9,30.14,North,355,0.0,3.0,77,0.00,,---,0.21,VWS V14.00,2013-04-05 03:48:00,
2013-04-04 22:53:00,46.8,40.0,30.14,North,355,0.0,0.0,77,0.00,,---,0.21,VWS V14.00,2013-04-05 03:53:00,
2013-04-04 22:58:00,46.8,40.0,30.14,North,355,0.0,0.0,77,0.00,,---,0.21,VWS V14.00,2013-04-05 03:58:00,
2013-04-04 23:00:00,46.8,40.0,30.14,North,355,0.0,0.0,77,0.00,,---,0.21,VWS V14.00,2013-04-05 04:00:00,
2013-04-04 23:05:00,46.6,39.8,30.14,North,355,0.0,0.0,77,0.00,,---,0.21,VWS V14.00,2013-04-05 04:05:00,
2013-04-04 23:10:00,46.5,39.7,30.14,North,355,0.0,0.0,77,0.00,,---,0.21,VWS V14.00,2013-04-05 04:10:00,
2013-04-04 23:15:00,46.3,39.5,30.14,North,355,0.0,0.0,77,0.00,,---,0.21,VWS V14.00,2013-04-05 04:15:00,
2013-04-04 23:20:00,46.3,39.5,30.14,North,355,0.0,0.0,77,0.00,,---,0.21,VWS V14.00,2013-04-05 04:20:00,
2013-04-04 23:25:00,46.2,39.4,30.14,North,355,0.0,0.0,77,0.00,,---,0.21,VWS V14.00,2013-04-05 04:25:00,
2013-04-04 23:30:00,46.1,39.6,30.14,North,355,0.0,0.0,78,0.00,,---,0.21,VWS V14.00,2013-04-05 04:30:00,
2013-04-04 23:35:00,46.1,39.6,30.14,North,355,0.0,0.0,78,0.00,,---,0.21,VWS V14.00,2013-04-05 04:35:00,
2013-04-04 23:40:00,46.1,39.6,30.13,North,355,0.0,0.0,78,0.00,,---,0.21,VWS V14.00,2013-04-05 04:40:00,
2013-04-04 23:45:00,46.1,39.6,30.14,North,355,0.0,0.0,78,0.00,,---,0.21,VWS V14.00,2013-04-05 04:45:00,
2013-04-04 23:50:00,46.2,39.7,30.13,North,355,1.0,2.0,78,0.00,,---,0.21,VWS V14.00,2013-04-05 04:50:00,
2013-04-04 23:55:00,46.3,39.8,30.13,North,355,1.0,3.0,78,0.00,,---,0.21,VWS V14.00,2013-04-05 04:55:00,